sensor_id;sensor_type;location;lat;lon;timestamp;P1;durP1;ratioP1;P2;durP2;ratioP2
74791;SDS011;63319;46.046;17.802;2023-04-01T00:01:06;5.50;;;2.30;;
74791;SDS011;63319;46.046;17.802;2023-04-01T00:04:09;4.37;;;1.73;;
74791;SDS011;63319;46.046;17.802;2023-04-01T00:07:12;4.87;;;2.17;;
74791;SDS011;63319;46.046;17.802;2023-04-01T00:10:15;3.40;;;1.42;;
74791;SDS011;63319;46.046;17.802;2023-04-01T00:13:18;4.10;;;1.52;;
74791;SDS011;63319;46.046;17.802;2023-04-01T00:16:22;3.75;;;1.70;;
74791;SDS011;63319;46.046;17.802;2023-04-01T00:19:25;3.83;;;1.60;;
74791;SDS011;63319;46.046;17.802;2023-04-01T00:22:28;3.73;;;1.60;;
74791;SDS011;63319;46.046;17.802;2023-04-01T00:25:31;5.10;;;1.90;;
74791;SDS011;63319;46.046;17.802;2023-04-01T00:28:34;5.88;;;2.15;;
74791;SDS011;63319;46.046;17.802;2023-04-01T00:31:38;4.20;;;2.00;;
74791;SDS011;63319;46.046;17.802;2023-04-01T00:34:41;3.97;;;1.83;;
74791;SDS011;63319;46.046;17.802;2023-04-01T00:37:44;2.97;;;1.50;;
74791;SDS011;63319;46.046;17.802;2023-04-01T00:40:47;4.38;;;1.70;;
74791;SDS011;63319;46.046;17.802;2023-04-01T00:43:50;3.13;;;1.30;;
74791;SDS011;63319;46.046;17.802;2023-04-01T00:46:54;4.20;;;1.83;;
74791;SDS011;63319;46.046;17.802;2023-04-01T00:49:57;3.57;;;1.50;;
74791;SDS011;63319;46.046;17.802;2023-04-01T00:53:00;4.30;;;1.90;;
74791;SDS011;63319;46.046;17.802;2023-04-01T00:56:04;3.63;;;1.40;;
74791;SDS011;63319;46.046;17.802;2023-04-01T00:59:14;3.55;;;1.70;;
74791;SDS011;63319;46.046;17.802;2023-04-01T01:02:21;3.28;;;1.55;;
74791;SDS011;63319;46.046;17.802;2023-04-01T01:05:38;4.07;;;1.77;;
74791;SDS011;63319;46.046;17.802;2023-04-01T01:15:40;3.78;;;1.60;;
74791;SDS011;63319;46.046;17.802;2023-04-01T01:22:17;4.27;;;1.80;;
74791;SDS011;63319;46.046;17.802;2023-04-01T01:32:19;3.67;;;1.58;;
74791;SDS011;63319;46.046;17.802;2023-04-01T01:38:47;3.40;;;1.73;;
74791;SDS011;63319;46.046;17.802;2023-04-01T01:41:52;4.00;;;1.93;;
74791;SDS011;63319;46.046;17.802;2023-04-01T01:44:57;3.33;;;1.75;;
74791;SDS011;63319;46.046;17.802;2023-04-01T01:48:02;4.28;;;1.85;;
74791;SDS011;63319;46.046;17.802;2023-04-01T01:51:10;4.20;;;1.65;;
74791;SDS011;63319;46.046;17.802;2023-04-01T01:54:16;3.50;;;1.03;;
74791;SDS011;63319;46.046;17.802;2023-04-01T01:57:21;3.77;;;1.43;;
74791;SDS011;63319;46.046;17.802;2023-04-01T02:00:29;4.18;;;1.52;;
74791;SDS011;63319;46.046;17.802;2023-04-01T02:03:34;3.25;;;1.35;;
74791;SDS011;63319;46.046;17.802;2023-04-01T02:06:41;3.65;;;1.65;;
74791;SDS011;63319;46.046;17.802;2023-04-01T02:09:49;3.43;;;1.53;;
74791;SDS011;63319;46.046;17.802;2023-04-01T02:12:53;2.67;;;1.13;;
74791;SDS011;63319;46.046;17.802;2023-04-01T02:16:02;3.33;;;1.38;;
74791;SDS011;63319;46.046;17.802;2023-04-01T02:19:11;3.40;;;1.20;;
74791;SDS011;63319;46.046;17.802;2023-04-01T02:22:24;3.83;;;1.60;;
74791;SDS011;63319;46.046;17.802;2023-04-01T02:25:30;2.90;;;1.40;;
74791;SDS011;63319;46.046;17.802;2023-04-01T02:28:37;3.07;;;1.30;;
74791;SDS011;63319;46.046;17.802;2023-04-01T02:31:42;3.25;;;1.30;;
74791;SDS011;63319;46.046;17.802;2023-04-01T02:34:46;2.88;;;1.40;;
74791;SDS011;63319;46.046;17.802;2023-04-01T02:37:50;2.47;;;1.15;;
74791;SDS011;63319;46.046;17.802;2023-04-01T02:40:59;2.60;;;1.20;;
74791;SDS011;63319;46.046;17.802;2023-04-01T02:44:03;3.03;;;1.47;;
74791;SDS011;63319;46.046;17.802;2023-04-01T02:47:06;2.78;;;1.10;;
74791;SDS011;63319;46.046;17.802;2023-04-01T02:50:09;2.97;;;1.33;;
74791;SDS011;63319;46.046;17.802;2023-04-01T02:53:12;3.10;;;1.40;;
74791;SDS011;63319;46.046;17.802;2023-04-01T02:56:15;3.30;;;1.53;;
74791;SDS011;63319;46.046;17.802;2023-04-01T02:59:17;4.27;;;1.77;;
74791;SDS011;63319;46.046;17.802;2023-04-01T03:02:20;2.90;;;1.52;;
74791;SDS011;63319;46.046;17.802;2023-04-01T03:05:23;3.10;;;1.30;;
74791;SDS011;63319;46.046;17.802;2023-04-01T03:08:26;2.70;;;1.50;;
74791;SDS011;63319;46.046;17.802;2023-04-01T03:11:29;4.30;;;1.30;;
74791;SDS011;63319;46.046;17.802;2023-04-01T03:14:32;4.00;;;1.50;;
74791;SDS011;63319;46.046;17.802;2023-04-01T03:17:35;3.67;;;1.30;;
74791;SDS011;63319;46.046;17.802;2023-04-01T03:20:41;3.33;;;1.10;;
74791;SDS011;63319;46.046;17.802;2023-04-01T03:23:45;3.17;;;1.43;;
74791;SDS011;63319;46.046;17.802;2023-04-01T03:26:48;3.17;;;1.30;;
74791;SDS011;63319;46.046;17.802;2023-04-01T03:29:51;2.73;;;1.30;;
74791;SDS011;63319;46.046;17.802;2023-04-01T03:32:54;2.75;;;1.27;;
74791;SDS011;63319;46.046;17.802;2023-04-01T03:35:57;2.42;;;1.10;;
74791;SDS011;63319;46.046;17.802;2023-04-01T03:39:00;2.55;;;1.30;;
74791;SDS011;63319;46.046;17.802;2023-04-01T03:42:11;3.10;;;1.33;;
74791;SDS011;63319;46.046;17.802;2023-04-01T03:45:14;3.27;;;1.50;;
74791;SDS011;63319;46.046;17.802;2023-04-01T03:48:17;3.45;;;1.50;;
74791;SDS011;63319;46.046;17.802;2023-04-01T03:51:20;3.17;;;1.35;;
74791;SDS011;63319;46.046;17.802;2023-04-01T03:54:23;3.70;;;1.38;;
74791;SDS011;63319;46.046;17.802;2023-04-01T03:57:26;3.07;;;1.60;;
74791;SDS011;63319;46.046;17.802;2023-04-01T04:00:34;2.00;;;1.10;;
74791;SDS011;63319;46.046;17.802;2023-04-01T04:03:37;2.42;;;1.20;;
74791;SDS011;63319;46.046;17.802;2023-04-01T04:06:41;3.08;;;1.50;;
74791;SDS011;63319;46.046;17.802;2023-04-01T04:09:44;3.00;;;1.38;;
74791;SDS011;63319;46.046;17.802;2023-04-01T04:12:47;3.07;;;1.40;;
74791;SDS011;63319;46.046;17.802;2023-04-01T04:15:52;2.57;;;1.23;;
74791;SDS011;63319;46.046;17.802;2023-04-01T04:18:55;2.85;;;1.38;;
74791;SDS011;63319;46.046;17.802;2023-04-01T04:21:58;3.30;;;1.60;;
74791;SDS011;63319;46.046;17.802;2023-04-01T04:25:04;2.80;;;1.13;;
74791;SDS011;63319;46.046;17.802;2023-04-01T04:28:07;2.53;;;1.20;;
74791;SDS011;63319;46.046;17.802;2023-04-01T04:31:10;3.30;;;1.43;;
74791;SDS011;63319;46.046;17.802;2023-04-01T04:34:16;3.40;;;1.60;;
74791;SDS011;63319;46.046;17.802;2023-04-01T04:37:20;2.88;;;1.30;;
74791;SDS011;63319;46.046;17.802;2023-04-01T04:40:25;3.92;;;1.65;;
74791;SDS011;63319;46.046;17.802;2023-04-01T04:43:27;3.07;;;1.40;;
74791;SDS011;63319;46.046;17.802;2023-04-01T04:46:31;2.87;;;1.17;;
74791;SDS011;63319;46.046;17.802;2023-04-01T04:49:46;3.20;;;1.60;;
74791;SDS011;63319;46.046;17.802;2023-04-01T04:52:50;3.55;;;1.42;;
74791;SDS011;63319;46.046;17.802;2023-04-01T04:55:54;3.28;;;1.17;;
74791;SDS011;63319;46.046;17.802;2023-04-01T04:59:23;4.10;;;1.30;;
74791;SDS011;63319;46.046;17.802;2023-04-01T05:02:52;3.13;;;1.60;;
74791;SDS011;63319;46.046;17.802;2023-04-01T05:05:54;2.63;;;1.20;;
74791;SDS011;63319;46.046;17.802;2023-04-01T05:08:57;3.42;;;1.42;;
74791;SDS011;63319;46.046;17.802;2023-04-01T05:12:01;3.17;;;1.10;;
74791;SDS011;63319;46.046;17.802;2023-04-01T05:15:16;3.63;;;1.43;;
74791;SDS011;63319;46.046;17.802;2023-04-01T05:18:19;4.47;;;1.77;;
74791;SDS011;63319;46.046;17.802;2023-04-01T05:21:22;3.28;;;1.55;;
74791;SDS011;63319;46.046;17.802;2023-04-01T05:24:25;3.95;;;1.70;;
74791;SDS011;63319;46.046;17.802;2023-04-01T05:27:28;2.70;;;1.40;;
74791;SDS011;63319;46.046;17.802;2023-04-01T05:30:31;3.50;;;1.40;;
74791;SDS011;63319;46.046;17.802;2023-04-01T05:33:37;4.57;;;1.67;;
74791;SDS011;63319;46.046;17.802;2023-04-01T05:36:40;3.22;;;1.50;;
74791;SDS011;63319;46.046;17.802;2023-04-01T05:39:44;3.22;;;1.30;;
74791;SDS011;63319;46.046;17.802;2023-04-01T05:42:47;2.67;;;1.30;;
74791;SDS011;63319;46.046;17.802;2023-04-01T05:45:50;3.17;;;1.30;;
74791;SDS011;63319;46.046;17.802;2023-04-01T05:49:10;3.77;;;1.37;;
74791;SDS011;63319;46.046;17.802;2023-04-01T05:52:13;3.78;;;1.33;;
74791;SDS011;63319;46.046;17.802;2023-04-01T05:55:16;3.60;;;1.60;;
74791;SDS011;63319;46.046;17.802;2023-04-01T05:58:19;3.58;;;1.20;;
74791;SDS011;63319;46.046;17.802;2023-04-01T06:01:23;3.50;;;1.80;;
74791;SDS011;63319;46.046;17.802;2023-04-01T06:04:27;3.03;;;1.43;;
74791;SDS011;63319;46.046;17.802;2023-04-01T06:07:34;2.55;;;1.02;;
74791;SDS011;63319;46.046;17.802;2023-04-01T06:38:10;2.77;;;1.40;;
74791;SDS011;63319;46.046;17.802;2023-04-01T06:56:05;4.00;;;1.40;;
74791;SDS011;63319;46.046;17.802;2023-04-01T06:59:30;3.28;;;1.40;;
74791;SDS011;63319;46.046;17.802;2023-04-01T07:05:45;2.40;;;1.10;;
74791;SDS011;63319;46.046;17.802;2023-04-01T07:08:49;2.83;;;1.43;;
74791;SDS011;63319;46.046;17.802;2023-04-01T07:11:56;2.70;;;1.40;;
74791;SDS011;63319;46.046;17.802;2023-04-01T07:15:28;3.40;;;1.60;;
74791;SDS011;63319;46.046;17.802;2023-04-01T07:18:45;2.58;;;1.35;;
74791;SDS011;63319;46.046;17.802;2023-04-01T07:21:56;2.90;;;1.27;;
74791;SDS011;63319;46.046;17.802;2023-04-01T07:25:41;3.93;;;1.67;;
74791;SDS011;63319;46.046;17.802;2023-04-01T07:29:09;3.53;;;1.23;;
74791;SDS011;63319;46.046;17.802;2023-04-01T07:35:52;3.33;;;1.10;;
74791;SDS011;63319;46.046;17.802;2023-04-01T07:46:48;2.80;;;1.10;;
74791;SDS011;63319;46.046;17.802;2023-04-01T07:50:13;2.72;;;1.38;;
74791;SDS011;63319;46.046;17.802;2023-04-01T07:53:49;2.63;;;1.20;;
74791;SDS011;63319;46.046;17.802;2023-04-01T07:57:27;3.13;;;1.50;;
74791;SDS011;63319;46.046;17.802;2023-04-01T08:04:20;3.03;;;1.23;;
74791;SDS011;63319;46.046;17.802;2023-04-01T08:07:30;2.92;;;1.13;;
74791;SDS011;63319;46.046;17.802;2023-04-01T08:14:56;2.78;;;1.58;;
74791;SDS011;63319;46.046;17.802;2023-04-01T08:18:36;3.00;;;1.30;;
74791;SDS011;63319;46.046;17.802;2023-04-01T08:22:03;3.40;;;1.50;;
74791;SDS011;63319;46.046;17.802;2023-04-01T08:25:17;3.20;;;1.38;;
74791;SDS011;63319;46.046;17.802;2023-04-01T08:28:29;2.97;;;1.55;;
74791;SDS011;63319;46.046;17.802;2023-04-01T08:35:11;4.07;;;1.60;;
74791;SDS011;63319;46.046;17.802;2023-04-01T08:38:31;2.73;;;1.50;;
74791;SDS011;63319;46.046;17.802;2023-04-01T08:45:32;3.17;;;1.67;;
74791;SDS011;63319;46.046;17.802;2023-04-01T08:52:01;3.07;;;1.30;;
74791;SDS011;63319;46.046;17.802;2023-04-01T08:59:08;3.90;;;1.60;;
74791;SDS011;63319;46.046;17.802;2023-04-01T09:09:41;4.30;;;1.87;;
74791;SDS011;63319;46.046;17.802;2023-04-01T09:16:23;2.75;;;1.38;;
74791;SDS011;63319;46.046;17.802;2023-04-01T09:37:29;3.38;;;1.60;;
74791;SDS011;63319;46.046;17.802;2023-04-01T10:21:40;5.00;;;2.17;;
74791;SDS011;63319;46.046;17.802;2023-04-01T10:35:01;5.97;;;2.27;;
74791;SDS011;63319;46.046;17.802;2023-04-01T10:41:50;5.68;;;2.95;;
74791;SDS011;63319;46.046;17.802;2023-04-01T11:33:18;4.90;;;2.50;;
74791;SDS011;63319;46.046;17.802;2023-04-01T11:45:01;4.82;;;2.40;;
74791;SDS011;63319;46.046;17.802;2023-04-01T11:48:41;4.20;;;1.97;;
74791;SDS011;63319;46.046;17.802;2023-04-01T12:09:56;3.80;;;1.70;;
74791;SDS011;63319;46.046;17.802;2023-04-01T12:37:26;4.65;;;2.28;;
74791;SDS011;63319;46.046;17.802;2023-04-01T12:55:36;4.00;;;1.90;;
74791;SDS011;63319;46.046;17.802;2023-04-01T13:15:43;4.47;;;2.10;;
74791;SDS011;63319;46.046;17.802;2023-04-01T13:28:45;3.73;;;1.80;;
74791;SDS011;63319;46.046;17.802;2023-04-01T13:32:04;5.05;;;2.22;;
74791;SDS011;63319;46.046;17.802;2023-04-01T13:36:00;3.72;;;1.73;;
74791;SDS011;63319;46.046;17.802;2023-04-01T13:42:46;3.88;;;1.92;;
74791;SDS011;63319;46.046;17.802;2023-04-01T13:58:55;3.97;;;1.90;;
74791;SDS011;63319;46.046;17.802;2023-04-01T14:16:10;4.07;;;1.98;;
74791;SDS011;63319;46.046;17.802;2023-04-01T14:29:40;3.65;;;1.80;;
74791;SDS011;63319;46.046;17.802;2023-04-01T14:36:23;4.43;;;2.00;;
74791;SDS011;63319;46.046;17.802;2023-04-01T14:49:43;3.97;;;1.80;;
74791;SDS011;63319;46.046;17.802;2023-04-01T14:56:47;3.28;;;1.70;;
74791;SDS011;63319;46.046;17.802;2023-04-01T15:00:12;4.32;;;1.90;;
74791;SDS011;63319;46.046;17.802;2023-04-01T15:03:22;4.28;;;2.00;;
74791;SDS011;63319;46.046;17.802;2023-04-01T15:23:57;4.25;;;1.80;;
74791;SDS011;63319;46.046;17.802;2023-04-01T15:29:59;4.75;;;2.22;;
74791;SDS011;63319;46.046;17.802;2023-04-01T15:43:32;6.07;;;1.80;;
74791;SDS011;63319;46.046;17.802;2023-04-01T15:46:54;4.55;;;2.10;;
74791;SDS011;63319;46.046;17.802;2023-04-01T15:50:04;3.70;;;2.03;;
74791;SDS011;63319;46.046;17.802;2023-04-01T15:56:27;4.25;;;2.25;;
74791;SDS011;63319;46.046;17.802;2023-04-01T15:59:51;5.03;;;2.10;;
74791;SDS011;63319;46.046;17.802;2023-04-01T16:03:39;4.53;;;2.38;;
74791;SDS011;63319;46.046;17.802;2023-04-01T16:10:44;4.40;;;2.00;;
74791;SDS011;63319;46.046;17.802;2023-04-01T16:14:09;5.13;;;2.65;;
74791;SDS011;63319;46.046;17.802;2023-04-01T16:17:31;4.67;;;2.57;;
74791;SDS011;63319;46.046;17.802;2023-04-01T16:20:55;4.45;;;2.05;;
74791;SDS011;63319;46.046;17.802;2023-04-01T16:30:33;3.80;;;1.95;;
74791;SDS011;63319;46.046;17.802;2023-04-01T16:33:55;5.00;;;2.57;;
74791;SDS011;63319;46.046;17.802;2023-04-01T16:37:08;4.85;;;2.08;;
74791;SDS011;63319;46.046;17.802;2023-04-01T16:40:36;3.95;;;2.10;;
74791;SDS011;63319;46.046;17.802;2023-04-01T16:43:52;4.93;;;2.40;;
74791;SDS011;63319;46.046;17.802;2023-04-01T16:47:06;4.82;;;2.40;;
74791;SDS011;63319;46.046;17.802;2023-04-01T16:50:30;5.30;;;2.63;;
74791;SDS011;63319;46.046;17.802;2023-04-01T16:53:49;3.72;;;1.98;;
74791;SDS011;63319;46.046;17.802;2023-04-01T16:57:37;4.70;;;2.35;;
74791;SDS011;63319;46.046;17.802;2023-04-01T17:01:01;4.60;;;2.17;;
74791;SDS011;63319;46.046;17.802;2023-04-01T17:04:21;4.95;;;2.45;;
74791;SDS011;63319;46.046;17.802;2023-04-01T17:07:37;4.67;;;2.30;;
74791;SDS011;63319;46.046;17.802;2023-04-01T17:11:02;5.75;;;2.97;;
74791;SDS011;63319;46.046;17.802;2023-04-01T17:17:58;5.30;;;2.40;;
74791;SDS011;63319;46.046;17.802;2023-04-01T17:21:28;4.85;;;2.42;;
74791;SDS011;63319;46.046;17.802;2023-04-01T17:25:00;5.17;;;2.50;;
74791;SDS011;63319;46.046;17.802;2023-04-01T17:38:53;5.22;;;2.65;;
74791;SDS011;63319;46.046;17.802;2023-04-01T17:42:08;7.50;;;3.57;;
74791;SDS011;63319;46.046;17.802;2023-04-01T17:45:24;6.93;;;3.45;;
74791;SDS011;63319;46.046;17.802;2023-04-01T17:58:34;6.67;;;3.80;;
74791;SDS011;63319;46.046;17.802;2023-04-01T18:02:09;7.78;;;4.18;;
74791;SDS011;63319;46.046;17.802;2023-04-01T18:08:58;6.90;;;3.85;;
74791;SDS011;63319;46.046;17.802;2023-04-01T18:12:13;7.35;;;4.20;;
74791;SDS011;63319;46.046;17.802;2023-04-01T18:19:27;6.95;;;4.25;;
74791;SDS011;63319;46.046;17.802;2023-04-01T18:22:59;6.90;;;4.28;;
74791;SDS011;63319;46.046;17.802;2023-04-01T18:26:14;6.82;;;3.90;;
74791;SDS011;63319;46.046;17.802;2023-04-01T18:29:37;7.38;;;4.50;;
74791;SDS011;63319;46.046;17.802;2023-04-01T18:32:52;6.57;;;3.53;;
74791;SDS011;63319;46.046;17.802;2023-04-01T18:53:53;6.95;;;3.65;;
74791;SDS011;63319;46.046;17.802;2023-04-01T18:57:18;7.47;;;3.97;;
74791;SDS011;63319;46.046;17.802;2023-04-01T19:00:28;6.78;;;3.70;;
74791;SDS011;63319;46.046;17.802;2023-04-01T19:07:30;7.03;;;3.97;;
74791;SDS011;63319;46.046;17.802;2023-04-01T19:10:52;7.10;;;4.13;;
74791;SDS011;63319;46.046;17.802;2023-04-01T19:17:52;6.45;;;3.40;;
74791;SDS011;63319;46.046;17.802;2023-04-01T19:24:53;6.90;;;3.63;;
74791;SDS011;63319;46.046;17.802;2023-04-01T19:28:16;6.88;;;3.83;;
74791;SDS011;63319;46.046;17.802;2023-04-01T19:31:33;7.53;;;4.22;;
74791;SDS011;63319;46.046;17.802;2023-04-01T19:35:03;6.97;;;3.67;;
74791;SDS011;63319;46.046;17.802;2023-04-01T19:38:32;7.00;;;4.18;;
74791;SDS011;63319;46.046;17.802;2023-04-01T19:55:11;7.57;;;4.30;;
74791;SDS011;63319;46.046;17.802;2023-04-01T20:05:28;9.63;;;5.15;;
74791;SDS011;63319;46.046;17.802;2023-04-01T20:15:36;9.80;;;5.40;;
74791;SDS011;63319;46.046;17.802;2023-04-01T20:18:52;10.73;;;6.15;;
74791;SDS011;63319;46.046;17.802;2023-04-01T20:22:02;9.15;;;5.32;;
74791;SDS011;63319;46.046;17.802;2023-04-01T20:28:21;10.10;;;6.00;;
74791;SDS011;63319;46.046;17.802;2023-04-01T20:31:36;10.93;;;6.10;;
74791;SDS011;63319;46.046;17.802;2023-04-01T20:41:28;10.57;;;6.53;;
74791;SDS011;63319;46.046;17.802;2023-04-01T20:44:42;10.48;;;6.20;;
74791;SDS011;63319;46.046;17.802;2023-04-01T20:51:28;9.52;;;5.95;;
74791;SDS011;63319;46.046;17.802;2023-04-01T20:58:12;10.73;;;5.95;;
74791;SDS011;63319;46.046;17.802;2023-04-01T21:08:30;10.63;;;6.40;;
74791;SDS011;63319;46.046;17.802;2023-04-01T21:11:42;10.48;;;6.05;;
74791;SDS011;63319;46.046;17.802;2023-04-01T21:29:19;11.00;;;6.40;;
74791;SDS011;63319;46.046;17.802;2023-04-01T21:39:42;10.60;;;5.50;;
74791;SDS011;63319;46.046;17.802;2023-04-01T21:46:29;9.88;;;6.13;;
74791;SDS011;63319;46.046;17.802;2023-04-01T21:50:10;9.88;;;6.10;;
74791;SDS011;63319;46.046;17.802;2023-04-01T22:07:19;8.40;;;5.55;;
74791;SDS011;63319;46.046;17.802;2023-04-01T22:13:31;9.40;;;5.40;;
74791;SDS011;63319;46.046;17.802;2023-04-01T22:16:43;8.68;;;5.15;;
74791;SDS011;63319;46.046;17.802;2023-04-01T22:40:23;8.77;;;4.75;;
74791;SDS011;63319;46.046;17.802;2023-04-01T22:43:38;9.43;;;5.82;;
74791;SDS011;63319;46.046;17.802;2023-04-01T22:57:02;8.00;;;4.65;;
74791;SDS011;63319;46.046;17.802;2023-04-01T23:00:23;9.68;;;5.57;;
74791;SDS011;63319;46.046;17.802;2023-04-01T23:03:31;8.27;;;5.00;;
74791;SDS011;63319;46.046;17.802;2023-04-01T23:06:38;8.57;;;4.70;;
74791;SDS011;63319;46.046;17.802;2023-04-01T23:09:45;8.82;;;5.55;;
74791;SDS011;63319;46.046;17.802;2023-04-01T23:12:48;7.53;;;4.47;;
74791;SDS011;63319;46.046;17.802;2023-04-01T23:15:53;9.40;;;5.38;;
74791;SDS011;63319;46.046;17.802;2023-04-01T23:29:14;7.88;;;4.53;;
74791;SDS011;63319;46.046;17.802;2023-04-01T23:32:19;7.90;;;4.70;;
74791;SDS011;63319;46.046;17.802;2023-04-01T23:35:28;8.93;;;4.87;;
74791;SDS011;63319;46.046;17.802;2023-04-01T23:38:32;8.93;;;4.55;;
74791;SDS011;63319;46.046;17.802;2023-04-01T23:41:37;7.95;;;4.68;;
74791;SDS011;63319;46.046;17.802;2023-04-01T23:44:41;8.18;;;5.15;;
74791;SDS011;63319;46.046;17.802;2023-04-01T23:47:45;8.25;;;4.88;;
74791;SDS011;63319;46.046;17.802;2023-04-01T23:50:51;9.07;;;5.13;;
74791;SDS011;63319;46.046;17.802;2023-04-01T23:54:14;7.28;;;4.20;;
74791;SDS011;63319;46.046;17.802;2023-04-01T23:57:22;7.85;;;4.40;;
